KDHN/DHN METAR and TAF weather

Enter ICAO airport designator
Station Type Date Time Source
KDHN METAR 2020/02/24 23:00 UTC NOAA

KDHN 242300Z 34003KT 1 1/4SM +RA BR FEW013 SCT020 OVC025 17/16 A2988 RMK AO2 P0004 T01670161


Station Type Date Time Source
KDHN Decoded METAR 2020/02/24 23:00 UTC NOAA

DOTHAN AIRPORT, AL, United States (KDHN) 31-19N 085-27W 113M
Feb 24, 2020 - 06:00 PM EST / 2020.02.24 2300 UTC
Wind: from the NNW (340 degrees) at 3 MPH (3 KT):0
Visibility: 1 1/4 mile(s):0
Sky conditions: overcast
Weather: heavy rain; mist
Precipitation last hour: 0.04 inches
Temperature: 62.1 F (16.7 C)
Dew Point: 61.0 F (16.1 C)
Relative Humidity: 96%
Pressure (altimeter): 29.88 in. Hg (1011 hPa)
ob: KDHN 242300Z 34003KT 1 1/4SM +RA BR FEW013 SCT020 OVC025 17/16 A2988 RMK AO2 P0004 T01670161
cycle: 23

Station Type Date Time Source
KDHN TAF 2020/02/24 21:03 UTC NOAA

TAF
AMD KDHN 242100Z 2421/2518 18012KT 6SM -SHRA OVC015
TEMPO 2421/2423 3SM -SHRA
FM250300 18009KT P6SM -SHRA OVC008
FM251500 25005KT P6SM OVC009

Example: see airport list